createdAt,value
2023-01-10T00:00:44.534Z,0.10
2023-01-10T00:03:12.365Z,0.10
2023-01-10T00:05:40.338Z,0.20
2023-01-10T00:08:10.080Z,0.20
2023-01-10T00:10:36.612Z,0.00
2023-01-10T00:13:21.525Z,0.20
2023-01-10T00:15:48.460Z,0.10
2023-01-10T00:18:15.375Z,0.10
2023-01-10T00:20:43.881Z,0.00
2023-01-10T00:23:10.333Z,0.20
2023-01-10T00:25:36.866Z,0.10
2023-01-10T00:28:22.982Z,0.20
2023-01-10T00:30:55.001Z,0.10
2023-01-10T00:33:21.969Z,0.10
2023-01-10T00:35:48.488Z,0.00
2023-01-10T00:38:15.361Z,0.00
2023-01-10T00:40:41.891Z,0.10
2023-01-10T00:43:28.150Z,0.10
2023-01-10T00:45:54.691Z,0.10
2023-01-10T00:48:21.181Z,0.10
2023-01-10T00:50:47.687Z,0.20
2023-01-10T00:53:14.480Z,0.10
2023-01-10T00:55:40.986Z,0.10
2023-01-10T00:58:11.009Z,0.10
2023-01-10T01:00:38.782Z,0.00
2023-01-10T01:03:07.878Z,0.03
2023-01-10T01:05:40.815Z,0.00
2023-01-10T01:08:07.263Z,0.10
2023-01-10T01:10:33.739Z,0.10
2023-01-10T01:13:15.534Z,0.00
2023-01-10T01:15:42.186Z,0.10
2023-01-10T01:18:20.005Z,0.10
2023-01-10T01:20:51.711Z,0.10
2023-01-10T01:23:18.181Z,0.10
2023-01-10T01:25:44.681Z,0.10
2023-01-10T01:28:14.389Z,0.00
2023-01-10T01:30:40.881Z,0.10
2023-01-10T01:33:07.373Z,0.10
2023-01-10T01:35:34.192Z,0.10
2023-01-10T01:38:00.707Z,0.20
2023-01-10T01:40:27.221Z,0.10
2023-01-10T01:42:55.134Z,0.10
2023-01-10T01:45:36.515Z,0.10
2023-01-10T01:48:36.053Z,0.10
2023-01-10T01:51:15.673Z,0.10
2023-01-10T01:53:56.511Z,0.10
2023-01-10T01:56:44.407Z,0.10
2023-01-10T01:59:22.398Z,0.10
2023-01-10T02:01:54.328Z,0.10
2023-01-10T02:04:29.133Z,0.00
2023-01-10T02:06:57.891Z,0.20
2023-01-10T02:09:45.722Z,0.30
2023-01-10T02:12:14.644Z,0.10
2023-01-10T02:14:44.645Z,0.10
2023-01-10T02:17:11.627Z,0.00
2023-01-10T02:19:56.785Z,0.30
2023-01-10T02:27:27.833Z,0.20
2023-01-10T02:31:59.034Z,0.20
2023-01-10T02:35:32.390Z,0.40
2023-01-10T02:39:52.087Z,0.20
2023-01-10T02:43:14.039Z,0.17
2023-01-10T02:46:01.784Z,0.20
2023-01-10T02:48:28.470Z,0.40
2023-01-10T02:51:19.948Z,0.10
2023-01-10T02:54:12.789Z,0.20
2023-01-10T03:01:11.603Z,0.40
2023-01-10T03:04:22.108Z,0.20
2023-01-10T03:07:17.665Z,0.30
2023-01-10T03:10:05.810Z,0.20
2023-01-10T03:13:02.927Z,0.10
2023-01-10T03:15:36.079Z,0.20
2023-01-10T03:18:10.537Z,0.20
2023-01-10T03:20:41.521Z,0.40
2023-01-10T03:23:10.304Z,0.20
2023-01-10T03:25:38.790Z,0.10
2023-01-10T03:28:51.845Z,0.27
2023-01-10T03:31:35.727Z,0.27
2023-01-10T03:34:03.699Z,0.20
2023-01-10T03:37:36.371Z,0.10
2023-01-10T03:41:54.370Z,0.10
2023-01-10T03:44:54.457Z,0.20
2023-01-10T03:48:00.073Z,0.10
2023-01-10T03:50:29.747Z,0.10
2023-01-10T03:52:56.824Z,0.10
2023-01-10T03:55:28.164Z,0.10
2023-01-10T03:57:57.576Z,0.30
2023-01-10T04:00:25.333Z,0.10
2023-01-10T04:02:51.995Z,0.20
2023-01-10T04:05:18.453Z,0.37
2023-01-10T04:07:45.070Z,0.27
2023-01-10T04:10:11.722Z,0.10
2023-01-10T04:12:38.206Z,0.10
2023-01-10T04:15:05.838Z,0.10
2023-01-10T04:17:32.370Z,0.10
2023-01-10T04:19:58.862Z,0.10
2023-01-10T04:22:25.344Z,0.10
2023-01-10T04:24:53.106Z,0.20
2023-01-10T04:27:20.036Z,0.20
2023-01-10T04:29:46.939Z,0.20
2023-01-10T04:32:13.452Z,0.20
2023-01-10T04:34:39.939Z,0.30
2023-01-10T04:37:06.395Z,0.10
2023-01-10T04:39:32.880Z,0.10
2023-01-10T04:41:59.417Z,0.10
2023-01-10T04:44:25.882Z,0.10
2023-01-10T04:46:52.323Z,0.10
2023-01-10T04:49:18.788Z,0.10
2023-01-10T04:51:45.278Z,0.20
2023-01-10T04:54:11.749Z,0.30
2023-01-10T04:56:39.201Z,0.20
2023-01-10T04:59:05.833Z,0.20
2023-01-10T05:01:33.216Z,0.10
2023-01-10T05:03:59.693Z,0.73
2023-01-10T05:06:26.181Z,0.30
2023-01-10T05:08:52.679Z,0.27
2023-01-10T05:11:19.147Z,0.10
2023-01-10T05:13:47.931Z,0.10
2023-01-10T05:16:15.010Z,0.20
2023-01-10T05:18:41.481Z,0.30
2023-01-10T05:21:13.101Z,0.20
2023-01-10T05:23:40.292Z,0.20
2023-01-10T05:26:19.087Z,0.20
2023-01-10T05:28:45.915Z,0.30
2023-01-10T05:31:15.757Z,0.40
2023-01-10T05:33:50.732Z,0.20
2023-01-10T05:36:18.785Z,0.30
2023-01-10T05:38:45.456Z,0.47
2023-01-10T05:41:12.121Z,0.20
2023-01-10T05:43:38.618Z,0.70
2023-01-10T05:46:05.147Z,0.40
2023-01-10T05:48:31.625Z,0.50
2023-01-10T05:50:58.084Z,0.73
2023-01-10T05:53:24.670Z,0.37
2023-01-10T05:56:00.662Z,0.30
2023-01-10T05:58:29.125Z,0.20
2023-01-10T06:00:57.560Z,0.20
2023-01-10T06:03:25.761Z,0.10
2023-01-10T06:05:53.704Z,0.20
2023-01-10T06:08:20.615Z,0.20
2023-01-10T06:10:47.092Z,0.20
2023-01-10T06:13:13.712Z,0.17
2023-01-10T06:15:40.549Z,0.10
2023-01-10T06:18:07.591Z,0.30
2023-01-10T06:20:34.942Z,0.20
2023-01-10T06:23:03.879Z,0.40
2023-01-10T06:25:36.230Z,0.40
2023-01-10T06:28:03.536Z,0.70
2023-01-10T06:30:30.015Z,0.67
2023-01-10T06:33:07.105Z,0.30
2023-01-10T06:35:34.425Z,0.37
2023-01-10T06:38:01.109Z,0.30
2023-01-10T06:40:28.516Z,0.50
2023-01-10T06:42:55.165Z,0.73
2023-01-10T06:45:21.689Z,0.30
2023-01-10T06:47:48.142Z,0.20
2023-01-10T06:50:14.598Z,0.10
2023-01-10T06:52:41.318Z,0.20
2023-01-10T06:55:08.463Z,0.20
2023-01-10T06:57:34.978Z,0.10
2023-01-10T07:00:08.130Z,0.30
2023-01-10T07:02:34.693Z,0.23
2023-01-10T07:05:01.192Z,0.20
2023-01-10T07:07:27.657Z,0.30
2023-01-10T07:09:54.271Z,0.70
2023-01-10T07:12:20.752Z,0.20
2023-01-10T07:14:47.234Z,0.40
2023-01-10T07:17:13.706Z,0.60
2023-01-10T07:19:40.192Z,0.30
2023-01-10T07:22:06.654Z,0.20
2023-01-10T07:24:33.632Z,0.20
2023-01-10T07:27:00.109Z,0.30
2023-01-10T07:29:26.574Z,0.30
2023-01-10T07:31:53.528Z,0.30
2023-01-10T07:34:20.050Z,0.20
2023-01-10T07:36:46.676Z,0.20
2023-01-10T07:39:13.176Z,0.20
2023-01-10T07:41:39.645Z,0.17
2023-01-10T07:44:06.098Z,0.10
2023-01-10T07:46:32.617Z,0.10
2023-01-10T07:48:59.132Z,0.67
2023-01-10T07:51:25.590Z,0.30
2023-01-10T07:53:52.065Z,0.47
2023-01-10T07:56:18.820Z,0.60
2023-01-10T07:58:45.595Z,0.20
2023-01-10T08:01:12.222Z,0.40
2023-01-10T08:03:38.819Z,0.50
2023-01-10T08:06:10.377Z,0.40
2023-01-10T08:08:37.884Z,0.40
2023-01-10T08:11:05.038Z,0.20
2023-01-10T08:13:32.336Z,0.30
2023-01-10T08:15:59.105Z,0.20
2023-01-10T08:18:26.087Z,0.10
2023-01-10T08:20:53.509Z,0.13
2023-01-10T08:23:21.102Z,0.20
2023-01-10T08:25:48.382Z,0.20
2023-01-10T08:28:15.299Z,0.30
2023-01-10T08:30:42.176Z,0.30
2023-01-10T08:33:10.419Z,0.30
2023-01-10T08:35:42.765Z,0.30
2023-01-10T08:38:10.912Z,0.40
2023-01-10T08:40:37.778Z,0.53
2023-01-10T08:43:09.159Z,0.20
2023-01-10T08:45:37.037Z,0.33
2023-01-10T08:48:05.939Z,0.50
2023-01-10T08:50:32.801Z,0.30
2023-01-10T08:53:00.505Z,0.40
2023-01-10T08:55:30.226Z,0.30
2023-01-10T08:58:00.156Z,0.30
2023-01-10T09:00:27.209Z,0.57
2023-01-10T09:02:53.786Z,0.20
2023-01-10T09:05:27.527Z,0.20
2023-01-10T09:08:02.092Z,0.40
2023-01-10T09:10:29.585Z,0.20
2023-01-10T09:13:00.595Z,0.30
2023-01-10T09:15:35.058Z,0.40
2023-01-10T09:18:05.663Z,0.30
2023-01-10T09:20:35.554Z,0.30
2023-01-10T09:23:11.867Z,0.27
2023-01-10T09:25:38.626Z,0.23
2023-01-10T09:28:05.698Z,0.30
2023-01-10T09:30:32.405Z,0.30
2023-01-10T09:32:59.272Z,0.50
2023-01-10T09:35:28.263Z,0.60
2023-01-10T09:37:57.282Z,0.70
2023-01-10T09:43:36.902Z,0.70
2023-01-10T09:46:22.967Z,0.80
2023-01-10T09:49:16.041Z,0.20
2023-01-10T09:51:48.131Z,0.30
2023-01-10T09:54:32.211Z,0.30
2023-01-10T09:57:01.527Z,0.27
2023-01-10T09:59:39.304Z,0.10
2023-01-10T10:03:23.918Z,0.20
2023-01-10T10:05:54.103Z,0.27
2023-01-10T10:08:22.746Z,1.37
2023-01-10T10:11:41.109Z,0.40
2023-01-10T10:14:58.676Z,0.20
2023-01-10T10:18:13.281Z,0.27
2023-01-10T10:21:01.230Z,0.30
2023-01-10T10:27:07.702Z,0.40
2023-01-10T10:33:15.176Z,0.10
2023-01-10T10:36:08.740Z,0.30
2023-01-10T10:38:43.604Z,0.50
2023-01-10T10:41:36.906Z,0.60
2023-01-10T10:44:39.727Z,0.20
2023-01-10T10:47:32.862Z,0.37
2023-01-10T10:51:56.445Z,0.30
2023-01-10T10:54:22.931Z,0.30
2023-01-10T10:56:49.452Z,0.40
2023-01-10T10:59:19.749Z,0.43
2023-01-10T11:01:49.024Z,0.70
2023-01-10T11:04:21.311Z,0.40
2023-01-10T11:06:49.259Z,0.40
2023-01-10T11:09:41.726Z,0.20
2023-01-10T11:12:17.773Z,0.30
2023-01-10T11:14:50.972Z,0.50
2023-01-10T11:17:25.422Z,0.30
2023-01-10T11:20:34.617Z,0.50
2023-01-10T11:23:01.337Z,0.40
2023-01-10T11:25:27.898Z,0.40
2023-01-10T11:28:00.253Z,0.20
2023-01-10T11:30:31.230Z,0.20
2023-01-10T11:33:07.738Z,0.20
2023-01-10T11:35:40.861Z,0.20
2023-01-10T11:38:28.323Z,0.30
2023-01-10T11:41:06.075Z,0.20
2023-01-10T11:43:39.221Z,0.60
2023-01-10T11:46:25.038Z,0.20
2023-01-10T11:49:10.162Z,0.20
2023-01-10T11:51:44.038Z,0.23
2023-01-10T11:54:24.510Z,0.30
2023-01-10T11:57:24.898Z,0.50
2023-01-10T12:00:08.161Z,0.40
2023-01-10T12:02:42.982Z,0.30
2023-01-10T12:05:22.784Z,0.50
2023-01-10T12:08:07.237Z,0.40
2023-01-10T12:10:34.862Z,0.50
2023-01-10T12:13:15.370Z,0.40
2023-01-10T12:15:41.928Z,0.33
2023-01-10T12:18:11.411Z,0.57
2023-01-10T12:20:51.213Z,0.30
2023-01-10T12:23:23.232Z,0.60
2023-01-10T12:26:00.282Z,0.20
2023-01-10T12:28:36.674Z,0.20
2023-01-10T12:31:11.593Z,0.40
2023-01-10T12:33:48.186Z,0.40
2023-01-10T12:37:04.887Z,0.30
2023-01-10T12:39:38.159Z,0.40
2023-01-10T12:43:58.329Z,0.20
2023-01-10T12:47:05.311Z,0.40
2023-01-10T12:49:44.248Z,0.20
2023-01-10T12:52:23.887Z,0.83
2023-01-10T12:54:50.440Z,0.30
2023-01-10T12:57:31.599Z,0.70
2023-01-10T13:00:03.743Z,0.50
2023-01-10T13:02:43.284Z,0.50
2023-01-10T13:05:27.009Z,0.50
2023-01-10T13:08:03.930Z,0.30
2023-01-10T13:10:33.992Z,1.30
2023-01-10T13:14:05.525Z,1.60
2023-01-10T13:17:02.743Z,0.50
2023-01-10T13:19:29.313Z,0.40
2023-01-10T13:22:22.291Z,0.70
2023-01-10T13:25:01.325Z,0.70
2023-01-10T13:27:33.137Z,0.87
2023-01-10T13:30:01.234Z,0.97
2023-01-10T13:32:35.538Z,0.60
2023-01-10T13:35:18.169Z,0.50
2023-01-10T13:37:54.389Z,0.40
2023-01-10T13:40:31.133Z,1.20
2023-01-10T13:44:16.393Z,0.40
2023-01-10T13:46:51.928Z,0.67
2023-01-10T13:49:37.871Z,0.40
2023-01-10T13:53:40.222Z,0.40
2023-01-10T13:56:41.377Z,0.33
2023-01-10T14:01:55.079Z,0.70
2023-01-10T14:04:33.824Z,0.40
2023-01-10T14:07:32.836Z,0.40
2023-01-10T14:10:41.728Z,0.57
2023-01-10T14:13:21.343Z,0.60
2023-01-10T14:15:47.928Z,0.30
2023-01-10T14:18:47.474Z,0.43
2023-01-10T14:21:25.297Z,0.50
2023-01-10T14:23:55.227Z,0.67
2023-01-10T14:26:44.817Z,0.87
2023-01-10T14:29:17.473Z,0.47
2023-01-10T14:31:47.765Z,0.90
2023-01-10T14:34:29.837Z,0.57
2023-01-10T14:37:14.865Z,0.33
2023-01-10T14:39:42.962Z,0.50
2023-01-10T14:42:16.964Z,0.90
2023-01-10T14:45:58.484Z,0.30
2023-01-10T14:48:34.969Z,0.40
2023-01-10T14:52:23.050Z,0.80
2023-01-10T14:55:19.834Z,0.80
2023-01-10T14:58:00.600Z,1.20
2023-01-10T15:00:33.542Z,0.37
2023-01-10T15:03:03.294Z,0.60
2023-01-10T15:05:44.635Z,0.40
2023-01-10T15:08:55.488Z,0.40
2023-01-10T15:11:23.347Z,0.30
2023-01-10T15:13:56.027Z,0.80
2023-01-10T15:16:25.937Z,0.70
2023-01-10T15:18:55.676Z,0.73
2023-01-10T15:21:23.567Z,1.23
2023-01-10T15:23:50.132Z,1.00
2023-01-10T15:26:28.790Z,1.00
2023-01-10T15:29:28.504Z,0.60
2023-01-10T15:32:10.867Z,0.50
2023-01-10T15:34:38.944Z,0.60
2023-01-10T15:37:16.525Z,0.70
2023-01-10T15:39:47.491Z,0.20
2023-01-10T15:42:14.235Z,0.50
2023-01-10T15:44:51.618Z,0.53
2023-01-10T15:47:50.579Z,0.47
2023-01-10T15:50:39.896Z,0.40
2023-01-10T15:53:10.390Z,0.40
2023-01-10T15:55:55.753Z,0.60
2023-01-10T15:58:35.749Z,0.50
2023-01-10T16:01:06.352Z,0.50
2023-01-10T16:03:57.587Z,0.73
2023-01-10T16:06:34.280Z,0.40
2023-01-10T16:09:06.420Z,0.90
2023-01-10T16:12:09.481Z,0.90
2023-01-10T16:14:37.098Z,0.80
2023-01-10T16:17:04.872Z,0.70
2023-01-10T16:19:31.443Z,1.50
2023-01-10T16:21:59.532Z,1.17
2023-01-10T16:24:30.417Z,1.47
2023-01-10T16:27:02.195Z,1.10
2023-01-10T16:29:29.035Z,1.20
2023-01-10T16:31:55.551Z,0.70
2023-01-10T16:34:22.939Z,0.70
2023-01-10T16:36:49.407Z,0.63
2023-01-10T16:39:19.211Z,0.83
2023-01-10T16:42:04.812Z,0.63
2023-01-10T16:44:32.998Z,0.67
2023-01-10T16:47:00.339Z,0.60
2023-01-10T16:49:27.024Z,0.97
2023-01-10T16:51:54.558Z,0.90
2023-01-10T16:54:25.017Z,0.83
2023-01-10T16:56:51.672Z,0.90
2023-01-10T16:59:19.532Z,0.90
2023-01-10T17:01:53.801Z,1.00
2023-01-10T17:04:30.500Z,0.80
2023-01-10T17:06:58.379Z,1.03
2023-01-10T17:09:29.141Z,1.00
2023-01-10T17:12:10.170Z,1.03
2023-01-10T17:14:38.108Z,0.90
2023-01-10T17:17:05.097Z,0.80
2023-01-10T17:19:31.639Z,0.60
2023-01-10T17:21:58.252Z,0.83
2023-01-10T17:24:24.713Z,0.80
2023-01-10T17:26:51.189Z,0.83
2023-01-10T17:29:17.654Z,0.60
2023-01-10T17:31:44.250Z,0.40
2023-01-10T17:34:10.780Z,0.50
2023-01-10T17:36:39.032Z,0.50
2023-01-10T17:39:06.442Z,0.70
2023-01-10T17:41:33.311Z,0.60
2023-01-10T17:43:59.878Z,1.30
2023-01-10T17:46:26.344Z,0.50
2023-01-10T17:48:52.823Z,0.60
2023-01-10T17:51:19.399Z,0.97
2023-01-10T17:53:45.905Z,0.60
2023-01-10T17:56:12.549Z,1.13
2023-01-10T17:58:39.075Z,0.90
2023-01-10T18:01:05.758Z,0.87
2023-01-10T18:03:32.346Z,1.03
2023-01-10T18:05:59.024Z,0.70
2023-01-10T18:08:26.087Z,0.90
2023-01-10T18:10:59.626Z,0.70
2023-01-10T18:13:32.227Z,0.57
2023-01-10T18:16:00.633Z,0.70
2023-01-10T18:18:27.639Z,0.50
2023-01-10T18:20:57.365Z,0.60
2023-01-10T18:23:25.964Z,1.00
2023-01-10T18:26:05.564Z,0.90
2023-01-10T18:28:42.615Z,0.87
2023-01-10T18:31:17.930Z,1.03
2023-01-10T18:33:46.388Z,0.90
2023-01-10T18:36:20.286Z,0.80
2023-01-10T18:38:47.238Z,0.77
2023-01-10T18:41:15.188Z,1.20
2023-01-10T18:43:41.677Z,0.70
2023-01-10T18:46:13.792Z,0.53
2023-01-10T18:48:40.510Z,0.90
2023-01-10T18:51:09.216Z,0.60
2023-01-10T18:53:35.709Z,0.70
2023-01-10T18:56:04.855Z,0.70
2023-01-10T18:58:35.059Z,0.67
2023-01-10T19:01:18.943Z,0.60
2023-01-10T19:03:45.954Z,0.73
2023-01-10T19:06:15.736Z,1.20
2023-01-10T19:08:44.188Z,0.70
2023-01-10T19:11:15.385Z,0.77
2023-01-10T19:13:44.153Z,0.70
2023-01-10T19:16:21.516Z,0.60
2023-01-10T19:18:57.178Z,0.47
2023-01-10T19:21:25.967Z,0.80
2023-01-10T19:23:57.165Z,0.97
2023-01-10T19:26:24.382Z,2.33
2023-01-10T19:28:51.086Z,1.03
2023-01-10T19:31:21.419Z,1.73
2023-01-10T19:33:49.634Z,0.83
2023-01-10T19:36:18.977Z,1.20
2023-01-10T19:38:45.691Z,0.60
2023-01-10T19:41:13.636Z,0.70
2023-01-10T19:43:40.448Z,0.97
2023-01-10T19:46:10.423Z,1.13
2023-01-10T19:48:37.386Z,0.80
2023-01-10T19:51:10.368Z,0.93
2023-01-10T19:53:41.373Z,0.97
2023-01-10T19:56:10.081Z,1.03
2023-01-10T19:58:38.154Z,1.10
2023-01-10T20:01:18.829Z,0.40
2023-01-10T20:03:46.952Z,0.70
2023-01-10T20:06:21.409Z,0.77
2023-01-10T20:08:48.610Z,1.10
2023-01-10T20:11:17.338Z,0.50
2023-01-10T20:13:44.380Z,1.10
2023-01-10T20:16:19.744Z,0.70
2023-01-10T20:18:48.360Z,0.93
2023-01-10T20:21:17.657Z,0.97
2023-01-10T20:23:45.060Z,1.47
2023-01-10T20:26:17.525Z,1.10
2023-01-10T20:28:44.997Z,0.60
2023-01-10T20:31:18.327Z,1.10
2023-01-10T20:33:45.010Z,1.50
2023-01-10T20:36:19.867Z,1.07
2023-01-10T20:38:46.687Z,0.80
2023-01-10T20:41:17.679Z,1.40
2023-01-10T20:43:45.054Z,1.07
2023-01-10T20:46:15.851Z,1.73
2023-01-10T20:48:42.680Z,2.37
2023-01-10T20:51:16.176Z,2.87
2023-01-10T20:53:43.655Z,2.97
2023-01-10T20:56:18.690Z,1.33
2023-01-10T20:58:45.434Z,1.47
2023-01-10T21:01:24.886Z,1.00
2023-01-10T21:03:55.749Z,1.53
2023-01-10T21:06:22.386Z,1.43
2023-01-10T21:08:50.155Z,1.40
2023-01-10T21:11:18.981Z,1.13
2023-01-10T21:13:45.870Z,1.00
2023-01-10T21:16:17.326Z,1.03
2023-01-10T21:18:44.220Z,1.03
2023-01-10T21:21:16.741Z,1.03
2023-01-10T21:23:43.237Z,0.70
2023-01-10T21:26:13.332Z,0.80
2023-01-10T21:28:47.276Z,0.90
2023-01-10T21:31:20.293Z,0.90
2023-01-10T21:33:49.975Z,1.00
2023-01-10T21:36:17.206Z,0.70
2023-01-10T21:38:44.275Z,0.73
2023-01-10T21:42:33.344Z,1.20
2023-01-10T21:45:01.127Z,0.63
2023-01-10T21:47:27.730Z,1.03
2023-01-10T21:49:54.332Z,0.60
2023-01-10T21:52:20.796Z,0.40
2023-01-10T21:54:47.285Z,0.70
2023-01-10T21:57:16.161Z,0.80
2023-01-10T21:59:42.624Z,0.70
2023-01-10T22:02:14.376Z,0.67
2023-01-10T22:04:44.686Z,0.70
2023-01-10T22:07:11.242Z,1.00
2023-01-10T22:09:37.705Z,0.53
2023-01-10T22:12:04.459Z,0.80
2023-01-10T22:14:30.932Z,0.87
2023-01-10T22:16:57.414Z,0.70
2023-01-10T22:19:23.877Z,0.97
2023-01-10T22:21:50.377Z,0.80
2023-01-10T22:24:19.272Z,0.80
2023-01-10T22:26:45.727Z,0.60
2023-01-10T22:29:12.220Z,0.60
2023-01-10T22:31:40.533Z,0.80
2023-01-10T22:34:07.127Z,0.70
2023-01-10T22:36:33.698Z,2.30
2023-01-10T22:39:00.182Z,2.67
2023-01-10T22:41:28.009Z,1.47
2023-01-10T22:43:55.563Z,1.53
2023-01-10T22:46:22.664Z,2.43
2023-01-10T22:48:49.244Z,4.13
2023-01-10T22:51:18.779Z,2.80
2023-01-10T22:53:57.871Z,2.43
2023-01-10T22:56:24.680Z,1.20
2023-01-10T22:58:52.090Z,1.40
2023-01-10T23:01:21.676Z,3.30
2023-01-10T23:03:48.646Z,2.70
2023-01-10T23:06:16.929Z,4.80
2023-01-10T23:08:43.889Z,2.30
2023-01-10T23:11:14.822Z,4.40
2023-01-10T23:13:41.577Z,3.90
2023-01-10T23:16:14.680Z,1.77
2023-01-10T23:18:41.555Z,1.50
2023-01-10T23:21:08.764Z,1.57
2023-01-10T23:23:35.427Z,1.10
2023-01-10T23:26:05.509Z,2.10
2023-01-10T23:28:38.746Z,2.63
2023-01-10T23:31:06.758Z,2.80
2023-01-10T23:33:33.959Z,3.70
2023-01-10T23:36:00.508Z,2.57
2023-01-10T23:38:27.470Z,1.37
2023-01-10T23:40:54.531Z,1.07
2023-01-10T23:43:21.211Z,1.23
2023-01-10T23:45:47.764Z,2.03
2023-01-10T23:48:14.270Z,1.37
2023-01-10T23:50:40.860Z,1.00
2023-01-10T23:53:07.956Z,0.87
2023-01-10T23:55:35.385Z,1.87
2023-01-10T23:58:01.928Z,1.70
